sensor_id;sensor_type;location;lat;lon;timestamp;P1;durP1;ratioP1;P2;durP2;ratioP2
79487;SDS011;68949;53.176;18.088;2023-07-13T00:01:49;8.00;;;5.40;;
79487;SDS011;68949;53.176;18.088;2023-07-13T00:04:17;9.70;;;5.60;;
79487;SDS011;68949;53.176;18.088;2023-07-13T00:06:46;9.10;;;5.20;;
79487;SDS011;68949;53.176;18.088;2023-07-13T00:09:15;7.40;;;4.40;;
79487;SDS011;68949;53.176;18.088;2023-07-13T00:11:43;6.70;;;4.60;;
79487;SDS011;68949;53.176;18.088;2023-07-13T00:14:11;6.80;;;4.20;;
79487;SDS011;68949;53.176;18.088;2023-07-13T00:16:39;7.80;;;5.10;;
79487;SDS011;68949;53.176;18.088;2023-07-13T00:19:11;7.80;;;4.80;;
79487;SDS011;68949;53.176;18.088;2023-07-13T00:21:39;9.40;;;5.50;;
79487;SDS011;68949;53.176;18.088;2023-07-13T00:24:08;9.30;;;6.10;;
79487;SDS011;68949;53.176;18.088;2023-07-13T00:26:49;8.80;;;5.40;;
79487;SDS011;68949;53.176;18.088;2023-07-13T00:29:16;9.70;;;4.80;;
79487;SDS011;68949;53.176;18.088;2023-07-13T00:31:43;8.40;;;4.50;;
79487;SDS011;68949;53.176;18.088;2023-07-13T00:34:11;8.30;;;4.20;;
79487;SDS011;68949;53.176;18.088;2023-07-13T00:36:38;8.60;;;4.10;;
79487;SDS011;68949;53.176;18.088;2023-07-13T00:39:04;9.10;;;4.10;;
79487;SDS011;68949;53.176;18.088;2023-07-13T00:41:31;12.60;;;5.20;;
79487;SDS011;68949;53.176;18.088;2023-07-13T00:43:59;8.50;;;4.80;;
79487;SDS011;68949;53.176;18.088;2023-07-13T00:46:29;9.20;;;5.20;;
79487;SDS011;68949;53.176;18.088;2023-07-13T00:49:01;7.90;;;4.80;;
79487;SDS011;68949;53.176;18.088;2023-07-13T00:51:48;7.40;;;4.30;;
79487;SDS011;68949;53.176;18.088;2023-07-13T00:54:32;7.60;;;3.90;;
79487;SDS011;68949;53.176;18.088;2023-07-13T00:57:04;7.20;;;3.50;;
79487;SDS011;68949;53.176;18.088;2023-07-13T00:59:35;8.80;;;4.30;;
79487;SDS011;68949;53.176;18.088;2023-07-13T01:02:03;9.80;;;4.70;;
79487;SDS011;68949;53.176;18.088;2023-07-13T01:04:30;7.90;;;4.60;;
79487;SDS011;68949;53.176;18.088;2023-07-13T01:06:57;10.20;;;4.60;;
79487;SDS011;68949;53.176;18.088;2023-07-13T01:09:26;9.10;;;4.70;;
79487;SDS011;68949;53.176;18.088;2023-07-13T01:11:53;10.10;;;4.70;;
79487;SDS011;68949;53.176;18.088;2023-07-13T01:14:20;10.10;;;4.60;;
79487;SDS011;68949;53.176;18.088;2023-07-13T01:16:47;8.70;;;5.00;;
79487;SDS011;68949;53.176;18.088;2023-07-13T01:19:27;9.30;;;4.80;;
79487;SDS011;68949;53.176;18.088;2023-07-13T01:22:16;7.30;;;4.90;;
79487;SDS011;68949;53.176;18.088;2023-07-13T01:24:46;8.60;;;5.30;;
79487;SDS011;68949;53.176;18.088;2023-07-13T01:27:17;7.50;;;5.20;;
79487;SDS011;68949;53.176;18.088;2023-07-13T01:29:48;9.60;;;4.90;;
79487;SDS011;68949;53.176;18.088;2023-07-13T01:32:21;8.00;;;5.10;;
79487;SDS011;68949;53.176;18.088;2023-07-13T01:34:51;9.80;;;5.50;;
79487;SDS011;68949;53.176;18.088;2023-07-13T01:37:21;8.20;;;5.30;;
79487;SDS011;68949;53.176;18.088;2023-07-13T01:39:48;8.00;;;5.30;;
79487;SDS011;68949;53.176;18.088;2023-07-13T01:42:15;7.80;;;4.80;;
79487;SDS011;68949;53.176;18.088;2023-07-13T01:44:41;8.00;;;4.60;;
79487;SDS011;68949;53.176;18.088;2023-07-13T01:47:09;8.90;;;4.80;;
79487;SDS011;68949;53.176;18.088;2023-07-13T01:49:37;9.20;;;5.30;;
79487;SDS011;68949;53.176;18.088;2023-07-13T01:52:04;8.30;;;4.80;;
79487;SDS011;68949;53.176;18.088;2023-07-13T01:54:31;8.50;;;5.30;;
79487;SDS011;68949;53.176;18.088;2023-07-13T01:57:00;8.30;;;5.00;;
79487;SDS011;68949;53.176;18.088;2023-07-13T01:59:27;8.00;;;5.10;;
79487;SDS011;68949;53.176;18.088;2023-07-13T02:01:53;12.80;;;5.10;;
79487;SDS011;68949;53.176;18.088;2023-07-13T02:04:21;8.50;;;4.40;;
79487;SDS011;68949;53.176;18.088;2023-07-13T02:06:47;8.60;;;4.50;;
79487;SDS011;68949;53.176;18.088;2023-07-13T02:09:16;6.80;;;4.20;;
79487;SDS011;68949;53.176;18.088;2023-07-13T02:11:43;7.20;;;4.50;;
79487;SDS011;68949;53.176;18.088;2023-07-13T02:14:10;7.90;;;5.10;;
79487;SDS011;68949;53.176;18.088;2023-07-13T02:16:36;8.60;;;5.70;;
79487;SDS011;68949;53.176;18.088;2023-07-13T02:19:03;8.90;;;5.70;;
79487;SDS011;68949;53.176;18.088;2023-07-13T02:21:30;10.70;;;6.20;;
79487;SDS011;68949;53.176;18.088;2023-07-13T02:23:56;9.50;;;5.30;;
79487;SDS011;68949;53.176;18.088;2023-07-13T02:26:24;10.50;;;6.00;;
79487;SDS011;68949;53.176;18.088;2023-07-13T02:28:51;10.10;;;5.30;;
79487;SDS011;68949;53.176;18.088;2023-07-13T02:31:20;9.00;;;5.10;;
79487;SDS011;68949;53.176;18.088;2023-07-13T02:33:46;7.30;;;4.90;;
79487;SDS011;68949;53.176;18.088;2023-07-13T02:36:13;9.50;;;5.10;;
79487;SDS011;68949;53.176;18.088;2023-07-13T02:38:44;8.90;;;5.70;;
79487;SDS011;68949;53.176;18.088;2023-07-13T02:41:11;10.20;;;5.50;;
79487;SDS011;68949;53.176;18.088;2023-07-13T02:43:39;9.70;;;5.20;;
79487;SDS011;68949;53.176;18.088;2023-07-13T02:46:09;8.60;;;5.50;;
79487;SDS011;68949;53.176;18.088;2023-07-13T02:48:38;9.20;;;5.50;;
79487;SDS011;68949;53.176;18.088;2023-07-13T02:51:05;9.40;;;5.50;;
79487;SDS011;68949;53.176;18.088;2023-07-13T02:53:33;10.30;;;5.40;;
79487;SDS011;68949;53.176;18.088;2023-07-13T02:55:59;9.10;;;5.20;;
79487;SDS011;68949;53.176;18.088;2023-07-13T02:58:26;11.10;;;5.40;;
79487;SDS011;68949;53.176;18.088;2023-07-13T03:00:55;10.20;;;5.40;;
79487;SDS011;68949;53.176;18.088;2023-07-13T03:03:22;11.10;;;6.10;;
79487;SDS011;68949;53.176;18.088;2023-07-13T03:05:58;8.20;;;5.20;;
79487;SDS011;68949;53.176;18.088;2023-07-13T03:08:28;8.40;;;4.80;;
79487;SDS011;68949;53.176;18.088;2023-07-13T03:11:03;8.90;;;5.40;;
79487;SDS011;68949;53.176;18.088;2023-07-13T03:13:34;7.80;;;4.20;;
79487;SDS011;68949;53.176;18.088;2023-07-13T03:16:03;6.90;;;4.70;;
79487;SDS011;68949;53.176;18.088;2023-07-13T03:18:30;10.20;;;4.80;;
79487;SDS011;68949;53.176;18.088;2023-07-13T03:21:01;9.50;;;5.40;;
79487;SDS011;68949;53.176;18.088;2023-07-13T03:23:27;8.80;;;5.70;;
79487;SDS011;68949;53.176;18.088;2023-07-13T03:26:08;8.30;;;5.00;;
79487;SDS011;68949;53.176;18.088;2023-07-13T03:28:36;8.50;;;4.60;;
79487;SDS011;68949;53.176;18.088;2023-07-13T03:31:07;8.40;;;5.20;;
79487;SDS011;68949;53.176;18.088;2023-07-13T03:33:36;8.00;;;5.10;;
79487;SDS011;68949;53.176;18.088;2023-07-13T03:36:05;9.40;;;5.40;;
79487;SDS011;68949;53.176;18.088;2023-07-13T03:38:34;7.90;;;4.60;;
79487;SDS011;68949;53.176;18.088;2023-07-13T03:41:02;10.00;;;5.50;;
79487;SDS011;68949;53.176;18.088;2023-07-13T03:43:29;8.10;;;5.40;;
79487;SDS011;68949;53.176;18.088;2023-07-13T03:45:56;8.00;;;5.20;;
79487;SDS011;68949;53.176;18.088;2023-07-13T03:48:23;8.30;;;5.00;;
79487;SDS011;68949;53.176;18.088;2023-07-13T03:50:50;6.80;;;4.30;;
79487;SDS011;68949;53.176;18.088;2023-07-13T03:53:17;8.30;;;4.50;;
79487;SDS011;68949;53.176;18.088;2023-07-13T03:55:45;7.50;;;4.60;;
79487;SDS011;68949;53.176;18.088;2023-07-13T03:58:31;7.10;;;3.60;;
79487;SDS011;68949;53.176;18.088;2023-07-13T04:01:07;8.00;;;5.30;;
79487;SDS011;68949;53.176;18.088;2023-07-13T04:03:35;8.20;;;5.40;;
79487;SDS011;68949;53.176;18.088;2023-07-13T04:06:07;11.20;;;5.60;;
79487;SDS011;68949;53.176;18.088;2023-07-13T04:08:38;10.40;;;5.20;;
79487;SDS011;68949;53.176;18.088;2023-07-13T04:11:06;8.50;;;5.20;;
79487;SDS011;68949;53.176;18.088;2023-07-13T04:13:32;10.70;;;4.80;;
79487;SDS011;68949;53.176;18.088;2023-07-13T04:15:59;10.50;;;5.00;;
79487;SDS011;68949;53.176;18.088;2023-07-13T04:18:26;7.60;;;5.10;;
79487;SDS011;68949;53.176;18.088;2023-07-13T04:20:53;8.80;;;5.60;;
79487;SDS011;68949;53.176;18.088;2023-07-13T04:23:19;9.50;;;5.20;;
79487;SDS011;68949;53.176;18.088;2023-07-13T04:25:47;9.20;;;5.30;;
79487;SDS011;68949;53.176;18.088;2023-07-13T04:28:16;10.20;;;5.40;;
79487;SDS011;68949;53.176;18.088;2023-07-13T04:30:44;9.50;;;5.40;;
79487;SDS011;68949;53.176;18.088;2023-07-13T04:33:11;8.30;;;5.50;;
79487;SDS011;68949;53.176;18.088;2023-07-13T04:35:37;7.90;;;4.80;;
79487;SDS011;68949;53.176;18.088;2023-07-13T04:38:05;8.30;;;4.90;;
79487;SDS011;68949;53.176;18.088;2023-07-13T04:40:32;8.10;;;3.90;;
79487;SDS011;68949;53.176;18.088;2023-07-13T04:42:59;7.30;;;4.90;;
79487;SDS011;68949;53.176;18.088;2023-07-13T04:45:25;7.10;;;4.70;;
79487;SDS011;68949;53.176;18.088;2023-07-13T04:47:52;11.50;;;4.80;;
79487;SDS011;68949;53.176;18.088;2023-07-13T04:50:19;8.70;;;4.70;;
79487;SDS011;68949;53.176;18.088;2023-07-13T04:52:50;8.20;;;5.10;;
79487;SDS011;68949;53.176;18.088;2023-07-13T04:55:18;8.70;;;4.50;;
79487;SDS011;68949;53.176;18.088;2023-07-13T04:57:46;7.00;;;4.40;;
79487;SDS011;68949;53.176;18.088;2023-07-13T05:00:13;9.10;;;4.90;;
79487;SDS011;68949;53.176;18.088;2023-07-13T05:02:44;5.80;;;3.50;;
79487;SDS011;68949;53.176;18.088;2023-07-13T05:05:12;9.70;;;4.40;;
79487;SDS011;68949;53.176;18.088;2023-07-13T05:07:39;8.30;;;4.20;;
79487;SDS011;68949;53.176;18.088;2023-07-13T05:10:07;9.60;;;4.80;;
79487;SDS011;68949;53.176;18.088;2023-07-13T05:12:35;6.10;;;3.70;;
79487;SDS011;68949;53.176;18.088;2023-07-13T05:15:03;7.10;;;3.70;;
79487;SDS011;68949;53.176;18.088;2023-07-13T05:17:30;6.80;;;3.20;;
79487;SDS011;68949;53.176;18.088;2023-07-13T05:19:57;8.00;;;3.60;;
79487;SDS011;68949;53.176;18.088;2023-07-13T05:22:24;8.60;;;3.00;;
79487;SDS011;68949;53.176;18.088;2023-07-13T05:24:50;5.60;;;3.30;;
79487;SDS011;68949;53.176;18.088;2023-07-13T05:27:17;9.90;;;3.70;;
79487;SDS011;68949;53.176;18.088;2023-07-13T05:29:44;8.10;;;3.90;;
79487;SDS011;68949;53.176;18.088;2023-07-13T05:32:10;7.60;;;3.00;;
79487;SDS011;68949;53.176;18.088;2023-07-13T05:34:37;8.30;;;2.90;;
79487;SDS011;68949;53.176;18.088;2023-07-13T05:37:04;5.60;;;2.30;;
79487;SDS011;68949;53.176;18.088;2023-07-13T05:39:31;6.30;;;2.40;;
79487;SDS011;68949;53.176;18.088;2023-07-13T05:41:58;7.70;;;2.70;;
79487;SDS011;68949;53.176;18.088;2023-07-13T05:44:24;7.50;;;2.10;;
79487;SDS011;68949;53.176;18.088;2023-07-13T05:46:51;5.80;;;2.30;;
79487;SDS011;68949;53.176;18.088;2023-07-13T05:49:17;6.70;;;2.60;;
79487;SDS011;68949;53.176;18.088;2023-07-13T05:51:44;5.60;;;2.30;;
79487;SDS011;68949;53.176;18.088;2023-07-13T05:54:11;5.90;;;2.50;;
79487;SDS011;68949;53.176;18.088;2023-07-13T05:56:38;6.70;;;2.50;;
79487;SDS011;68949;53.176;18.088;2023-07-13T05:59:04;6.60;;;2.60;;
79487;SDS011;68949;53.176;18.088;2023-07-13T06:01:31;9.10;;;2.90;;
79487;SDS011;68949;53.176;18.088;2023-07-13T06:03:58;6.80;;;2.40;;
79487;SDS011;68949;53.176;18.088;2023-07-13T06:06:25;6.30;;;2.30;;
79487;SDS011;68949;53.176;18.088;2023-07-13T06:08:52;7.10;;;2.40;;
79487;SDS011;68949;53.176;18.088;2023-07-13T06:11:21;5.60;;;1.90;;
79487;SDS011;68949;53.176;18.088;2023-07-13T06:13:50;5.80;;;2.00;;
79487;SDS011;68949;53.176;18.088;2023-07-13T06:16:17;6.50;;;2.20;;
79487;SDS011;68949;53.176;18.088;2023-07-13T06:18:44;6.50;;;2.10;;
79487;SDS011;68949;53.176;18.088;2023-07-13T06:21:20;6.00;;;2.10;;
79487;SDS011;68949;53.176;18.088;2023-07-13T06:23:50;5.30;;;1.80;;
79487;SDS011;68949;53.176;18.088;2023-07-13T06:26:19;7.20;;;2.50;;
79487;SDS011;68949;53.176;18.088;2023-07-13T06:28:47;4.50;;;1.80;;
79487;SDS011;68949;53.176;18.088;2023-07-13T06:31:14;6.90;;;2.30;;
79487;SDS011;68949;53.176;18.088;2023-07-13T06:33:41;6.60;;;2.10;;
79487;SDS011;68949;53.176;18.088;2023-07-13T06:36:08;6.00;;;1.60;;
79487;SDS011;68949;53.176;18.088;2023-07-13T06:38:36;5.50;;;2.00;;
79487;SDS011;68949;53.176;18.088;2023-07-13T06:41:06;6.70;;;2.00;;
79487;SDS011;68949;53.176;18.088;2023-07-13T06:43:33;6.30;;;1.80;;
79487;SDS011;68949;53.176;18.088;2023-07-13T06:46:00;8.00;;;2.10;;
79487;SDS011;68949;53.176;18.088;2023-07-13T06:48:28;6.20;;;2.10;;
79487;SDS011;68949;53.176;18.088;2023-07-13T06:50:55;7.20;;;2.40;;
79487;SDS011;68949;53.176;18.088;2023-07-13T06:53:22;6.90;;;1.70;;
79487;SDS011;68949;53.176;18.088;2023-07-13T06:55:50;6.30;;;2.20;;
79487;SDS011;68949;53.176;18.088;2023-07-13T06:58:18;6.70;;;2.00;;
79487;SDS011;68949;53.176;18.088;2023-07-13T07:00:45;6.40;;;2.20;;
79487;SDS011;68949;53.176;18.088;2023-07-13T07:03:12;8.00;;;2.10;;
79487;SDS011;68949;53.176;18.088;2023-07-13T07:05:39;7.00;;;2.60;;
79487;SDS011;68949;53.176;18.088;2023-07-13T07:08:06;5.20;;;1.70;;
79487;SDS011;68949;53.176;18.088;2023-07-13T07:10:35;4.30;;;2.10;;
79487;SDS011;68949;53.176;18.088;2023-07-13T07:13:03;6.90;;;2.40;;
79487;SDS011;68949;53.176;18.088;2023-07-13T07:15:30;5.50;;;2.10;;
79487;SDS011;68949;53.176;18.088;2023-07-13T07:17:57;9.30;;;2.30;;
79487;SDS011;68949;53.176;18.088;2023-07-13T07:20:24;5.00;;;1.90;;
79487;SDS011;68949;53.176;18.088;2023-07-13T07:22:51;6.00;;;2.00;;
79487;SDS011;68949;53.176;18.088;2023-07-13T07:25:17;6.00;;;2.20;;
79487;SDS011;68949;53.176;18.088;2023-07-13T07:27:45;6.30;;;2.20;;
79487;SDS011;68949;53.176;18.088;2023-07-13T07:30:12;6.60;;;2.30;;
79487;SDS011;68949;53.176;18.088;2023-07-13T07:32:39;7.10;;;1.90;;
79487;SDS011;68949;53.176;18.088;2023-07-13T07:35:06;4.50;;;1.60;;
79487;SDS011;68949;53.176;18.088;2023-07-13T07:37:33;6.30;;;2.20;;
79487;SDS011;68949;53.176;18.088;2023-07-13T07:40:00;5.10;;;1.90;;
79487;SDS011;68949;53.176;18.088;2023-07-13T07:42:26;6.90;;;2.40;;
79487;SDS011;68949;53.176;18.088;2023-07-13T07:44:53;7.10;;;2.20;;
79487;SDS011;68949;53.176;18.088;2023-07-13T07:47:20;7.60;;;2.30;;
79487;SDS011;68949;53.176;18.088;2023-07-13T07:49:46;6.90;;;2.10;;
79487;SDS011;68949;53.176;18.088;2023-07-13T07:52:13;8.60;;;2.20;;
79487;SDS011;68949;53.176;18.088;2023-07-13T07:54:40;5.80;;;2.00;;
79487;SDS011;68949;53.176;18.088;2023-07-13T07:57:06;4.80;;;1.80;;
79487;SDS011;68949;53.176;18.088;2023-07-13T07:59:36;4.70;;;1.70;;
79487;SDS011;68949;53.176;18.088;2023-07-13T08:02:04;5.20;;;1.40;;
79487;SDS011;68949;53.176;18.088;2023-07-13T08:04:31;4.50;;;1.70;;
79487;SDS011;68949;53.176;18.088;2023-07-13T08:06:57;5.80;;;1.70;;
79487;SDS011;68949;53.176;18.088;2023-07-13T08:09:24;5.70;;;1.80;;
79487;SDS011;68949;53.176;18.088;2023-07-13T08:11:51;6.70;;;1.90;;
79487;SDS011;68949;53.176;18.088;2023-07-13T08:14:18;5.50;;;2.20;;
79487;SDS011;68949;53.176;18.088;2023-07-13T08:16:45;5.30;;;2.20;;
79487;SDS011;68949;53.176;18.088;2023-07-13T08:19:12;4.60;;;1.80;;
79487;SDS011;68949;53.176;18.088;2023-07-13T08:21:38;6.50;;;2.10;;
79487;SDS011;68949;53.176;18.088;2023-07-13T08:24:05;6.20;;;2.40;;
79487;SDS011;68949;53.176;18.088;2023-07-13T08:26:32;5.50;;;2.20;;
79487;SDS011;68949;53.176;18.088;2023-07-13T08:28:59;5.30;;;2.10;;
79487;SDS011;68949;53.176;18.088;2023-07-13T08:31:26;6.70;;;2.10;;
79487;SDS011;68949;53.176;18.088;2023-07-13T08:33:53;8.80;;;2.80;;
79487;SDS011;68949;53.176;18.088;2023-07-13T08:36:19;6.00;;;2.40;;
79487;SDS011;68949;53.176;18.088;2023-07-13T08:38:46;7.50;;;2.40;;
79487;SDS011;68949;53.176;18.088;2023-07-13T08:41:15;4.30;;;1.70;;
79487;SDS011;68949;53.176;18.088;2023-07-13T08:43:47;4.50;;;1.70;;
79487;SDS011;68949;53.176;18.088;2023-07-13T08:46:23;5.70;;;2.00;;
79487;SDS011;68949;53.176;18.088;2023-07-13T08:48:57;4.20;;;1.80;;
79487;SDS011;68949;53.176;18.088;2023-07-13T08:51:33;5.20;;;1.70;;
79487;SDS011;68949;53.176;18.088;2023-07-13T08:57:14;6.70;;;1.90;;
79487;SDS011;68949;53.176;18.088;2023-07-13T08:59:43;5.20;;;1.60;;
79487;SDS011;68949;53.176;18.088;2023-07-13T09:02:22;5.90;;;1.80;;
79487;SDS011;68949;53.176;18.088;2023-07-13T09:05:01;5.80;;;1.70;;
79487;SDS011;68949;53.176;18.088;2023-07-13T09:10:53;4.70;;;1.20;;
79487;SDS011;68949;53.176;18.088;2023-07-13T09:16:10;6.20;;;1.70;;
79487;SDS011;68949;53.176;18.088;2023-07-13T09:18:47;5.50;;;1.30;;
79487;SDS011;68949;53.176;18.088;2023-07-13T09:21:31;5.00;;;1.30;;
79487;SDS011;68949;53.176;18.088;2023-07-13T09:24:34;4.90;;;1.30;;
79487;SDS011;68949;53.176;18.088;2023-07-13T09:26:55;4.50;;;1.30;;
79487;SDS011;68949;53.176;18.088;2023-07-13T09:29:33;5.90;;;1.80;;
79487;SDS011;68949;53.176;18.088;2023-07-13T09:32:03;5.80;;;1.70;;
79487;SDS011;68949;53.176;18.088;2023-07-13T09:34:34;4.80;;;1.30;;
79487;SDS011;68949;53.176;18.088;2023-07-13T09:37:00;4.90;;;1.50;;
79487;SDS011;68949;53.176;18.088;2023-07-13T09:39:30;4.50;;;1.20;;
79487;SDS011;68949;53.176;18.088;2023-07-13T09:42:12;4.90;;;1.30;;
79487;SDS011;68949;53.176;18.088;2023-07-13T09:45:02;5.20;;;1.50;;
79487;SDS011;68949;53.176;18.088;2023-07-13T09:47:31;4.30;;;1.50;;
79487;SDS011;68949;53.176;18.088;2023-07-13T09:50:01;5.40;;;1.40;;
79487;SDS011;68949;53.176;18.088;2023-07-13T09:52:47;5.20;;;1.70;;
79487;SDS011;68949;53.176;18.088;2023-07-13T09:55:31;4.70;;;1.50;;
79487;SDS011;68949;53.176;18.088;2023-07-13T09:58:19;4.60;;;1.30;;
79487;SDS011;68949;53.176;18.088;2023-07-13T10:01:08;4.80;;;1.30;;
79487;SDS011;68949;53.176;18.088;2023-07-13T10:03:36;4.10;;;1.30;;
79487;SDS011;68949;53.176;18.088;2023-07-13T10:06:17;4.10;;;1.60;;
79487;SDS011;68949;53.176;18.088;2023-07-13T10:08:47;4.10;;;1.20;;
79487;SDS011;68949;53.176;18.088;2023-07-13T10:11:28;4.30;;;1.40;;
79487;SDS011;68949;53.176;18.088;2023-07-13T10:13:59;4.70;;;1.50;;
79487;SDS011;68949;53.176;18.088;2023-07-13T10:16:31;4.40;;;1.30;;
79487;SDS011;68949;53.176;18.088;2023-07-13T10:19:02;4.40;;;1.20;;
79487;SDS011;68949;53.176;18.088;2023-07-13T10:21:54;3.70;;;1.30;;
79487;SDS011;68949;53.176;18.088;2023-07-13T10:24:35;5.90;;;1.60;;
79487;SDS011;68949;53.176;18.088;2023-07-13T10:30:21;4.60;;;1.20;;
79487;SDS011;68949;53.176;18.088;2023-07-13T10:32:52;5.30;;;1.70;;
79487;SDS011;68949;53.176;18.088;2023-07-13T10:35:20;3.80;;;1.60;;
79487;SDS011;68949;53.176;18.088;2023-07-13T10:38:02;6.20;;;1.90;;
79487;SDS011;68949;53.176;18.088;2023-07-13T10:40:58;5.40;;;1.40;;
79487;SDS011;68949;53.176;18.088;2023-07-13T10:43:41;3.50;;;1.30;;
79487;SDS011;68949;53.176;18.088;2023-07-13T10:46:14;4.50;;;1.70;;
79487;SDS011;68949;53.176;18.088;2023-07-13T10:48:47;4.70;;;1.30;;
79487;SDS011;68949;53.176;18.088;2023-07-13T10:51:18;7.20;;;1.70;;
79487;SDS011;68949;53.176;18.088;2023-07-13T10:56:43;4.70;;;1.50;;
79487;SDS011;68949;53.176;18.088;2023-07-13T11:01:58;4.70;;;1.50;;
79487;SDS011;68949;53.176;18.088;2023-07-13T11:04:47;4.40;;;1.40;;
79487;SDS011;68949;53.176;18.088;2023-07-13T11:07:51;5.80;;;1.50;;
79487;SDS011;68949;53.176;18.088;2023-07-13T11:10:50;4.50;;;1.40;;
79487;SDS011;68949;53.176;18.088;2023-07-13T11:16:32;4.20;;;1.20;;
79487;SDS011;68949;53.176;18.088;2023-07-13T11:21:30;4.20;;;1.30;;
79487;SDS011;68949;53.176;18.088;2023-07-13T11:26:42;4.10;;;1.60;;
79487;SDS011;68949;53.176;18.088;2023-07-13T11:32:00;4.30;;;1.40;;
79487;SDS011;68949;53.176;18.088;2023-07-13T11:34:47;3.80;;;1.30;;
79487;SDS011;68949;53.176;18.088;2023-07-13T11:37:16;5.40;;;1.50;;
79487;SDS011;68949;53.176;18.088;2023-07-13T11:39:46;4.50;;;1.30;;
79487;SDS011;68949;53.176;18.088;2023-07-13T11:42:16;5.10;;;1.40;;
79487;SDS011;68949;53.176;18.088;2023-07-13T11:44:50;4.70;;;1.20;;
79487;SDS011;68949;53.176;18.088;2023-07-13T11:47:22;3.20;;;1.30;;
79487;SDS011;68949;53.176;18.088;2023-07-13T11:49:53;5.20;;;1.40;;
79487;SDS011;68949;53.176;18.088;2023-07-13T11:52:34;3.50;;;1.30;;
79487;SDS011;68949;53.176;18.088;2023-07-13T11:55:13;4.20;;;1.50;;
79487;SDS011;68949;53.176;18.088;2023-07-13T11:57:49;4.70;;;1.50;;
79487;SDS011;68949;53.176;18.088;2023-07-13T12:00:28;6.10;;;2.30;;
79487;SDS011;68949;53.176;18.088;2023-07-13T12:03:01;5.40;;;1.90;;
79487;SDS011;68949;53.176;18.088;2023-07-13T12:05:31;4.80;;;2.00;;
79487;SDS011;68949;53.176;18.088;2023-07-13T12:07:58;5.60;;;2.00;;
79487;SDS011;68949;53.176;18.088;2023-07-13T12:10:29;5.20;;;2.30;;
79487;SDS011;68949;53.176;18.088;2023-07-13T12:13:04;4.60;;;2.10;;
79487;SDS011;68949;53.176;18.088;2023-07-13T12:15:42;4.50;;;1.90;;
79487;SDS011;68949;53.176;18.088;2023-07-13T12:18:22;5.80;;;2.00;;
79487;SDS011;68949;53.176;18.088;2023-07-13T12:20:57;5.10;;;2.10;;
79487;SDS011;68949;53.176;18.088;2023-07-13T12:25:57;6.00;;;2.20;;
79487;SDS011;68949;53.176;18.088;2023-07-13T12:28:43;4.80;;;2.10;;
79487;SDS011;68949;53.176;18.088;2023-07-13T12:34:15;4.70;;;1.90;;
79487;SDS011;68949;53.176;18.088;2023-07-13T12:36:58;4.60;;;1.50;;
79487;SDS011;68949;53.176;18.088;2023-07-13T12:42:26;4.60;;;1.50;;
79487;SDS011;68949;53.176;18.088;2023-07-13T12:45:01;4.30;;;1.70;;
79487;SDS011;68949;53.176;18.088;2023-07-13T12:47:41;4.50;;;1.50;;
79487;SDS011;68949;53.176;18.088;2023-07-13T12:50:16;5.50;;;2.00;;
79487;SDS011;68949;53.176;18.088;2023-07-13T12:52:51;4.10;;;1.30;;
79487;SDS011;68949;53.176;18.088;2023-07-13T12:55:20;4.10;;;1.60;;
79487;SDS011;68949;53.176;18.088;2023-07-13T12:57:56;6.00;;;1.60;;
79487;SDS011;68949;53.176;18.088;2023-07-13T13:00:29;4.40;;;1.50;;
79487;SDS011;68949;53.176;18.088;2023-07-13T13:03:20;4.30;;;1.60;;
79487;SDS011;68949;53.176;18.088;2023-07-13T13:06:00;7.10;;;1.90;;
79487;SDS011;68949;53.176;18.088;2023-07-13T13:08:31;6.20;;;1.60;;
79487;SDS011;68949;53.176;18.088;2023-07-13T13:10:58;5.90;;;1.60;;
79487;SDS011;68949;53.176;18.088;2023-07-13T13:13:25;4.00;;;1.30;;
79487;SDS011;68949;53.176;18.088;2023-07-13T13:15:52;3.60;;;1.50;;
79487;SDS011;68949;53.176;18.088;2023-07-13T13:18:22;4.10;;;1.40;;
79487;SDS011;68949;53.176;18.088;2023-07-13T13:20:50;4.40;;;1.40;;
79487;SDS011;68949;53.176;18.088;2023-07-13T13:23:20;5.30;;;1.60;;
79487;SDS011;68949;53.176;18.088;2023-07-13T13:25:49;4.90;;;1.60;;
79487;SDS011;68949;53.176;18.088;2023-07-13T13:28:19;3.10;;;1.20;;
79487;SDS011;68949;53.176;18.088;2023-07-13T13:30:51;4.00;;;1.60;;
79487;SDS011;68949;53.176;18.088;2023-07-13T13:33:20;4.70;;;1.40;;
79487;SDS011;68949;53.176;18.088;2023-07-13T13:35:48;4.60;;;1.50;;
79487;SDS011;68949;53.176;18.088;2023-07-13T13:38:17;7.70;;;2.50;;
79487;SDS011;68949;53.176;18.088;2023-07-13T13:40:47;6.10;;;1.70;;
79487;SDS011;68949;53.176;18.088;2023-07-13T13:43:21;4.40;;;2.00;;
79487;SDS011;68949;53.176;18.088;2023-07-13T13:45:55;5.40;;;2.30;;
79487;SDS011;68949;53.176;18.088;2023-07-13T13:48:34;4.80;;;1.90;;
79487;SDS011;68949;53.176;18.088;2023-07-13T13:51:16;6.90;;;2.50;;
79487;SDS011;68949;53.176;18.088;2023-07-13T13:53:46;7.20;;;2.30;;
79487;SDS011;68949;53.176;18.088;2023-07-13T13:56:14;6.50;;;2.40;;
79487;SDS011;68949;53.176;18.088;2023-07-13T13:58:41;4.60;;;2.20;;
79487;SDS011;68949;53.176;18.088;2023-07-13T14:01:20;5.90;;;2.30;;
79487;SDS011;68949;53.176;18.088;2023-07-13T14:03:50;5.50;;;2.40;;
79487;SDS011;68949;53.176;18.088;2023-07-13T14:06:20;5.50;;;2.50;;
79487;SDS011;68949;53.176;18.088;2023-07-13T14:08:47;6.10;;;2.40;;
79487;SDS011;68949;53.176;18.088;2023-07-13T14:11:16;5.60;;;2.30;;
79487;SDS011;68949;53.176;18.088;2023-07-13T14:13:48;6.40;;;2.10;;
79487;SDS011;68949;53.176;18.088;2023-07-13T14:16:19;5.60;;;2.30;;
79487;SDS011;68949;53.176;18.088;2023-07-13T14:18:48;6.60;;;2.40;;
79487;SDS011;68949;53.176;18.088;2023-07-13T14:21:20;4.30;;;2.20;;
79487;SDS011;68949;53.176;18.088;2023-07-13T14:23:49;6.10;;;2.10;;
79487;SDS011;68949;53.176;18.088;2023-07-13T14:26:19;5.30;;;2.00;;
79487;SDS011;68949;53.176;18.088;2023-07-13T14:28:52;5.10;;;1.80;;
79487;SDS011;68949;53.176;18.088;2023-07-13T14:31:23;7.00;;;2.20;;
79487;SDS011;68949;53.176;18.088;2023-07-13T14:33:52;3.90;;;1.80;;
79487;SDS011;68949;53.176;18.088;2023-07-13T14:36:27;5.20;;;1.60;;
79487;SDS011;68949;53.176;18.088;2023-07-13T14:38:57;4.80;;;1.60;;
79487;SDS011;68949;53.176;18.088;2023-07-13T14:41:25;4.40;;;1.90;;
79487;SDS011;68949;53.176;18.088;2023-07-13T14:43:52;4.60;;;1.30;;
79487;SDS011;68949;53.176;18.088;2023-07-13T14:46:31;3.50;;;0.90;;
79487;SDS011;68949;53.176;18.088;2023-07-13T14:49:06;2.80;;;1.10;;
79487;SDS011;68949;53.176;18.088;2023-07-13T14:51:41;3.90;;;1.70;;
79487;SDS011;68949;53.176;18.088;2023-07-13T14:54:08;3.20;;;1.10;;
79487;SDS011;68949;53.176;18.088;2023-07-13T14:56:36;4.50;;;1.20;;
79487;SDS011;68949;53.176;18.088;2023-07-13T14:59:02;3.50;;;1.10;;
79487;SDS011;68949;53.176;18.088;2023-07-13T15:01:29;3.40;;;1.10;;
79487;SDS011;68949;53.176;18.088;2023-07-13T15:03:57;4.10;;;1.10;;
79487;SDS011;68949;53.176;18.088;2023-07-13T15:06:24;5.00;;;1.00;;
79487;SDS011;68949;53.176;18.088;2023-07-13T15:08:51;3.90;;;1.20;;
79487;SDS011;68949;53.176;18.088;2023-07-13T15:11:18;3.10;;;1.10;;
79487;SDS011;68949;53.176;18.088;2023-07-13T15:13:44;4.00;;;1.20;;
79487;SDS011;68949;53.176;18.088;2023-07-13T15:16:21;2.70;;;1.00;;
79487;SDS011;68949;53.176;18.088;2023-07-13T15:18:50;2.80;;;0.70;;
79487;SDS011;68949;53.176;18.088;2023-07-13T15:21:21;3.20;;;1.00;;
79487;SDS011;68949;53.176;18.088;2023-07-13T15:23:51;3.30;;;0.90;;
79487;SDS011;68949;53.176;18.088;2023-07-13T15:26:18;3.90;;;1.00;;
79487;SDS011;68949;53.176;18.088;2023-07-13T15:28:46;2.60;;;0.70;;
79487;SDS011;68949;53.176;18.088;2023-07-13T15:31:21;3.50;;;1.20;;